RPB7462 SKBO-MGGT
Flight info
| Callsign | RPB7462 |
|---|---|
| Flight time | N/A |
| Altitude | 38000 |
| Route | URODU UL423 NOROS DCT ILOTI DCT CAT UG436 KAPAN KAPAN2C |
| Aircraft | B738/M-SDE2E3FGHIRWXY/LB1 |
Departure
| Time | N/A |
|---|---|
| Airport | El Dorado International Airport (SKBO) |
Arrival
| Time | 2026-04-27 22:38 |
|---|---|
| Airport | La Aurora International Airport (MGGT) |
| Time | Latitude | Longitude | Altitude | Speed | Heading |
|---|---|---|---|---|---|
| 2026-04-27 21:26 | 10.42804 | -84.41586 | 37916 ft | 436 kts | 296° |
| 2026-04-27 21:27 | 10.45823 | -84.46885 | 37904 ft | 436 kts | 296° |
| 2026-04-27 21:27 | 10.48868 | -84.52232 | 37904 ft | 436 kts | 296° |
| 2026-04-27 21:28 | 10.51907 | -84.57571 | 37898 ft | 436 kts | 296° |
| 2026-04-27 21:28 | 10.54949 | -84.62918 | 37893 ft | 436 kts | 297° |
| 2026-04-27 21:29 | 10.57964 | -84.68220 | 37891 ft | 435 kts | 297° |
| 2026-04-27 21:29 | 10.60990 | -84.73545 | 37889 ft | 435 kts | 297° |
| 2026-04-27 21:30 | 10.64015 | -84.78870 | 37882 ft | 434 kts | 297° |
| 2026-04-27 21:30 | 10.67035 | -84.84189 | 37883 ft | 433 kts | 297° |
| 2026-04-27 21:31 | 10.70030 | -84.89466 | 37881 ft | 433 kts | 297° |
| 2026-04-27 21:31 | 10.73038 | -84.94770 | 37883 ft | 433 kts | 297° |
| 2026-04-27 21:32 | 10.76046 | -85.00076 | 37885 ft | 433 kts | 297° |
| 2026-04-27 21:32 | 10.79055 | -85.05386 | 37875 ft | 433 kts | 297° |
| 2026-04-27 21:33 | 10.82060 | -85.10693 | 37879 ft | 433 kts | 297° |
| 2026-04-27 21:33 | 10.85073 | -85.16015 | 37874 ft | 433 kts | 297° |
| 2026-04-27 21:34 | 10.88077 | -85.21323 | 37885 ft | 433 kts | 297° |
| 2026-04-27 21:34 | 10.91084 | -85.26642 | 37874 ft | 434 kts | 297° |
| 2026-04-27 21:35 | 10.94101 | -85.31980 | 37874 ft | 435 kts | 297° |
| 2026-04-27 21:35 | 10.97105 | -85.37299 | 37866 ft | 436 kts | 297° |
| 2026-04-27 21:36 | 11.00132 | -85.42659 | 37866 ft | 437 kts | 297° |
| 2026-04-27 21:36 | 11.03165 | -85.48033 | 37864 ft | 438 kts | 297° |
| 2026-04-27 21:37 | 11.06201 | -85.53416 | 37859 ft | 438 kts | 297° |
| 2026-04-27 21:37 | 11.09241 | -85.58809 | 37862 ft | 439 kts | 297° |
| 2026-04-27 21:38 | 11.12277 | -85.64198 | 37857 ft | 438 kts | 297° |
| 2026-04-27 21:38 | 11.15295 | -85.69557 | 37853 ft | 438 kts | 297° |
| 2026-04-27 21:39 | 11.18326 | -85.74944 | 37853 ft | 438 kts | 297° |
| 2026-04-27 21:39 | 11.21356 | -85.80329 | 37852 ft | 438 kts | 297° |
| 2026-04-27 21:40 | 11.24395 | -85.85713 | 37848 ft | 438 kts | 297° |
| 2026-04-27 21:40 | 11.27429 | -85.91086 | 37846 ft | 437 kts | 298° |
| 2026-04-27 21:41 | 11.30459 | -85.96455 | 37846 ft | 437 kts | 298° |
| 2026-04-27 21:41 | 11.33487 | -86.01827 | 37846 ft | 436 kts | 298° |
| 2026-04-27 21:42 | 11.35997 | -86.06282 | 37843 ft | 436 kts | 298° |
| 2026-04-27 21:42 | 11.39017 | -86.11647 | 37844 ft | 436 kts | 298° |
| 2026-04-27 21:43 | 11.42034 | -86.17008 | 37847 ft | 436 kts | 298° |
| 2026-04-27 21:43 | 11.45053 | -86.22375 | 37847 ft | 436 kts | 298° |
| 2026-04-27 21:44 | 11.48049 | -86.27704 | 37846 ft | 436 kts | 298° |
| 2026-04-27 21:44 | 11.51063 | -86.33070 | 37843 ft | 436 kts | 298° |
| 2026-04-27 21:45 | 11.54586 | -86.39344 | 37843 ft | 436 kts | 298° |
| 2026-04-27 21:45 | 11.57093 | -86.43810 | 37843 ft | 436 kts | 298° |
| 2026-04-27 21:46 | 11.60106 | -86.49181 | 37840 ft | 436 kts | 298° |
| 2026-04-27 21:46 | 11.63121 | -86.54560 | 37838 ft | 436 kts | 298° |
| 2026-04-27 21:47 | 11.66138 | -86.59943 | 37839 ft | 436 kts | 298° |
| 2026-04-27 21:47 | 11.69150 | -86.65322 | 37841 ft | 436 kts | 298° |
| 2026-04-27 21:48 | 11.72144 | -86.70671 | 37839 ft | 436 kts | 298° |
| 2026-04-27 21:48 | 11.75154 | -86.76052 | 37839 ft | 436 kts | 298° |
| 2026-04-27 21:49 | 11.78165 | -86.81438 | 37840 ft | 436 kts | 298° |
| 2026-04-27 21:49 | 11.81169 | -86.86813 | 37839 ft | 436 kts | 298° |
| 2026-04-27 21:50 | 11.84172 | -86.92190 | 37838 ft | 436 kts | 298° |
| 2026-04-27 21:50 | 11.87154 | -86.97534 | 37838 ft | 436 kts | 298° |
| 2026-04-27 21:51 | 11.90154 | -87.02912 | 37842 ft | 436 kts | 298° |
| 2026-04-27 21:51 | 11.93155 | -87.08294 | 37841 ft | 436 kts | 298° |
| 2026-04-27 21:52 | 11.96152 | -87.13673 | 37842 ft | 436 kts | 298° |
| 2026-04-27 21:52 | 11.99149 | -87.19053 | 37840 ft | 436 kts | 298° |
| 2026-04-27 21:53 | 12.02144 | -87.24435 | 37842 ft | 436 kts | 298° |
| 2026-04-27 21:53 | 12.05145 | -87.29830 | 37839 ft | 436 kts | 298° |
| 2026-04-27 21:54 | 12.08140 | -87.35216 | 37841 ft | 436 kts | 298° |
| 2026-04-27 21:54 | 12.11118 | -87.40576 | 37845 ft | 436 kts | 298° |
| 2026-04-27 21:55 | 12.14110 | -87.45963 | 37842 ft | 436 kts | 298° |
| 2026-04-27 21:55 | 12.17096 | -87.51345 | 37840 ft | 436 kts | 298° |
| 2026-04-27 21:56 | 12.21579 | -87.59427 | 37842 ft | 435 kts | 298° |
| 2026-04-27 21:57 | 12.24566 | -87.64816 | 37841 ft | 435 kts | 298° |
| 2026-04-27 21:57 | 12.27552 | -87.70208 | 37844 ft | 435 kts | 298° |
| 2026-04-27 21:58 | 12.30533 | -87.75593 | 37851 ft | 435 kts | 298° |
| 2026-04-27 21:58 | 12.33493 | -87.80943 | 37840 ft | 435 kts | 298° |
| 2026-04-27 21:59 | 12.36468 | -87.86323 | 37841 ft | 435 kts | 298° |
| 2026-04-27 21:59 | 12.39441 | -87.91704 | 37849 ft | 434 kts | 298° |
| 2026-04-27 22:00 | 12.42420 | -87.97098 | 37844 ft | 434 kts | 298° |
| 2026-04-27 22:00 | 12.45393 | -88.02485 | 37847 ft | 434 kts | 298° |
| 2026-04-27 22:01 | 12.48345 | -88.07835 | 37843 ft | 434 kts | 298° |
| 2026-04-27 22:01 | 12.51312 | -88.13218 | 37847 ft | 434 kts | 298° |
| 2026-04-27 22:02 | 12.54284 | -88.18612 | 37841 ft | 434 kts | 298° |
| 2026-04-27 22:02 | 12.57252 | -88.24002 | 37845 ft | 435 kts | 298° |
| 2026-04-27 22:03 | 12.60225 | -88.29403 | 37844 ft | 435 kts | 298° |
| 2026-04-27 22:03 | 12.63178 | -88.34775 | 37844 ft | 435 kts | 298° |
| 2026-04-27 22:04 | 12.66146 | -88.40174 | 37844 ft | 435 kts | 298° |
| 2026-04-27 22:04 | 12.69114 | -88.45577 | 37846 ft | 435 kts | 298° |
| 2026-04-27 22:05 | 12.72081 | -88.50983 | 37845 ft | 435 kts | 299° |
| 2026-04-27 22:05 | 12.75053 | -88.56392 | 37852 ft | 435 kts | 300° |
| 2026-04-27 22:05 | 12.76816 | -88.58919 | 37842 ft | 436 kts | 311° |
| 2026-04-27 22:06 | 12.78977 | -88.61095 | 37855 ft | 436 kts | 320° |
| 2026-04-27 22:06 | 12.84128 | -88.64350 | 37863 ft | 437 kts | 332° |
| 2026-04-27 22:07 | 12.89520 | -88.67232 | 37848 ft | 437 kts | 328° |
| 2026-04-27 22:07 | 12.94436 | -88.70817 | 37846 ft | 435 kts | 322° |
| 2026-04-27 22:08 | 12.99268 | -88.74566 | 37843 ft | 435 kts | 322° |
| 2026-04-27 22:08 | 13.04111 | -88.78294 | 37840 ft | 435 kts | 322° |
| 2026-04-27 22:09 | 13.08962 | -88.81995 | 37835 ft | 434 kts | 322° |
| 2026-04-27 22:09 | 13.13812 | -88.85685 | 37823 ft | 434 kts | 323° |
| 2026-04-27 22:10 | 13.18658 | -88.89375 | 37844 ft | 433 kts | 323° |
| 2026-04-27 22:10 | 13.23501 | -88.93066 | 37850 ft | 432 kts | 323° |
| 2026-04-27 22:11 | 13.28324 | -88.96743 | 37857 ft | 432 kts | 323° |
| 2026-04-27 22:11 | 13.33119 | -89.00401 | 37858 ft | 431 kts | 323° |
| 2026-04-27 22:12 | 13.37930 | -89.04074 | 37855 ft | 431 kts | 323° |
| 2026-04-27 22:12 | 13.40355 | -89.05925 | 37408 ft | 435 kts | 323° |
| 2026-04-27 22:12 | 13.42736 | -89.07819 | 37038 ft | 429 kts | 318° |
| 2026-04-27 22:12 | 13.44798 | -89.09960 | 36617 ft | 425 kts | 310° |
| 2026-04-27 22:13 | 13.46663 | -89.12302 | 36233 ft | 421 kts | 309° |
| 2026-04-27 22:13 | 13.48487 | -89.14641 | 35834 ft | 417 kts | 309° |
| 2026-04-27 22:13 | 13.50288 | -89.16957 | 35430 ft | 414 kts | 309° |
| 2026-04-27 22:13 | 13.52086 | -89.19260 | 35032 ft | 411 kts | 309° |
| 2026-04-27 22:14 | 13.53872 | -89.21535 | 34641 ft | 408 kts | 310° |
| 2026-04-27 22:14 | 13.55656 | -89.23796 | 34356 ft | 405 kts | 310° |
| 2026-04-27 22:14 | 13.57432 | -89.26042 | 33943 ft | 403 kts | 310° |
| 2026-04-27 22:14 | 13.59196 | -89.28271 | 33510 ft | 401 kts | 310° |
| 2026-04-27 22:15 | 13.60928 | -89.30459 | 33105 ft | 398 kts | 310° |
| 2026-04-27 22:15 | 13.62671 | -89.32659 | 32712 ft | 395 kts | 310° |
| 2026-04-27 22:15 | 13.64424 | -89.34874 | 32320 ft | 392 kts | 310° |
| 2026-04-27 22:15 | 13.66138 | -89.37040 | 31943 ft | 390 kts | 311° |
| 2026-04-27 22:16 | 13.67842 | -89.39195 | 31568 ft | 387 kts | 311° |
| 2026-04-27 22:16 | 13.69517 | -89.41312 | 31197 ft | 385 kts | 311° |
| 2026-04-27 22:16 | 13.71199 | -89.43440 | 30839 ft | 383 kts | 311° |
| 2026-04-27 22:16 | 13.72877 | -89.45563 | 30476 ft | 381 kts | 311° |
| 2026-04-27 22:17 | 13.74544 | -89.47672 | 30122 ft | 379 kts | 311° |
| 2026-04-27 22:17 | 13.76204 | -89.49774 | 29682 ft | 377 kts | 311° |
| 2026-04-27 22:17 | 13.77852 | -89.51861 | 29289 ft | 374 kts | 311° |
| 2026-04-27 22:17 | 13.79485 | -89.53929 | 28894 ft | 371 kts | 311° |
| 2026-04-27 22:18 | 13.81107 | -89.55984 | 28517 ft | 368 kts | 311° |
| 2026-04-27 22:18 | 13.82717 | -89.58024 | 28137 ft | 366 kts | 311° |
| 2026-04-27 22:18 | 13.84312 | -89.60046 | 27774 ft | 363 kts | 311° |
| 2026-04-27 22:18 | 13.85903 | -89.62063 | 27372 ft | 362 kts | 311° |
| 2026-04-27 22:19 | 13.87493 | -89.64086 | 26926 ft | 362 kts | 311° |
| 2026-04-27 22:19 | 13.89048 | -89.66070 | 26560 ft | 361 kts | 311° |
| 2026-04-27 22:19 | 13.90623 | -89.68079 | 26188 ft | 360 kts | 311° |
| 2026-04-27 22:19 | 13.92190 | -89.70079 | 25821 ft | 358 kts | 311° |
| 2026-04-27 22:20 | 13.93753 | -89.72075 | 25445 ft | 357 kts | 311° |
| 2026-04-27 22:20 | 13.95313 | -89.74066 | 25081 ft | 356 kts | 311° |
| 2026-04-27 22:20 | 13.96867 | -89.76050 | 24698 ft | 356 kts | 311° |
| 2026-04-27 22:20 | 13.98420 | -89.78033 | 24337 ft | 355 kts | 311° |
| 2026-04-27 22:21 | 13.99968 | -89.80011 | 23957 ft | 355 kts | 311° |
| 2026-04-27 22:21 | 14.01513 | -89.81986 | 23589 ft | 354 kts | 311° |
| 2026-04-27 22:21 | 14.03059 | -89.83960 | 23169 ft | 353 kts | 311° |
| 2026-04-27 22:21 | 14.04599 | -89.85929 | 22795 ft | 351 kts | 311° |
| 2026-04-27 22:22 | 14.06074 | -89.87938 | 22349 ft | 353 kts | 307° |
| 2026-04-27 22:22 | 14.07413 | -89.90060 | 21945 ft | 353 kts | 304° |
| 2026-04-27 22:22 | 14.08700 | -89.92206 | 21562 ft | 351 kts | 304° |
| 2026-04-27 22:22 | 14.09975 | -89.94344 | 21200 ft | 349 kts | 304° |
| 2026-04-27 22:23 | 14.11249 | -89.96457 | 20854 ft | 346 kts | 305° |
| 2026-04-27 22:23 | 14.12505 | -89.98523 | 20510 ft | 344 kts | 305° |
| 2026-04-27 22:23 | 14.13776 | -90.00601 | 20150 ft | 342 kts | 305° |
| 2026-04-27 22:23 | 14.15045 | -90.02665 | 19803 ft | 340 kts | 305° |
| 2026-04-27 22:24 | 14.16309 | -90.04719 | 19455 ft | 339 kts | 305° |
| 2026-04-27 22:24 | 14.17568 | -90.06766 | 19069 ft | 338 kts | 305° |
| 2026-04-27 22:24 | 14.18830 | -90.08815 | 18704 ft | 338 kts | 305° |
| 2026-04-27 22:24 | 14.20089 | -90.10859 | 18339 ft | 337 kts | 305° |
| 2026-04-27 22:25 | 14.21334 | -90.12900 | 17958 ft | 336 kts | 304° |
| 2026-04-27 22:25 | 14.22519 | -90.14964 | 17600 ft | 333 kts | 303° |
| 2026-04-27 22:25 | 14.23670 | -90.17026 | 17245 ft | 330 kts | 303° |
| 2026-04-27 22:25 | 14.24809 | -90.19073 | 16924 ft | 328 kts | 303° |
| 2026-04-27 22:26 | 14.25941 | -90.21102 | 16628 ft | 324 kts | 303° |
| 2026-04-27 22:26 | 14.27048 | -90.23077 | 16342 ft | 321 kts | 303° |
| 2026-04-27 22:26 | 14.28163 | -90.25060 | 16024 ft | 319 kts | 303° |
| 2026-04-27 22:26 | 14.29277 | -90.27039 | 15675 ft | 318 kts | 303° |
| 2026-04-27 22:27 | 14.30388 | -90.29013 | 15366 ft | 317 kts | 303° |
| 2026-04-27 22:27 | 14.31492 | -90.30971 | 15074 ft | 315 kts | 304° |
| 2026-04-27 22:27 | 14.32734 | -90.32820 | 14754 ft | 311 kts | 312° |
| 2026-04-27 22:27 | 14.34195 | -90.34446 | 14470 ft | 307 kts | 320° |
| 2026-04-27 22:28 | 14.35827 | -90.35847 | 14160 ft | 304 kts | 327° |
| 2026-04-27 22:28 | 14.37608 | -90.37004 | 13864 ft | 300 kts | 335° |
| 2026-04-27 22:28 | 14.39368 | -90.37847 | 13538 ft | 298 kts | 342° |
| 2026-04-27 22:28 | 14.41307 | -90.38485 | 13240 ft | 294 kts | 349° |
| 2026-04-27 22:29 | 14.43302 | -90.38860 | 12952 ft | 291 kts | 356° |
| 2026-04-27 22:29 | 14.45319 | -90.38982 | 12599 ft | 289 kts | 2° |
| 2026-04-27 22:29 | 14.47305 | -90.38864 | 12360 ft | 284 kts | 6° |
| 2026-04-27 22:29 | 14.49266 | -90.38711 | 12132 ft | 281 kts | 6° |
| 2026-04-27 22:30 | 14.51088 | -90.38577 | 11865 ft | 279 kts | 6° |
| 2026-04-27 22:30 | 14.53020 | -90.38438 | 11568 ft | 278 kts | 6° |
| 2026-04-27 22:30 | 14.54296 | -90.38347 | 11411 ft | 276 kts | 6° |
| 2026-04-27 22:30 | 14.56151 | -90.38214 | 11089 ft | 277 kts | 6° |
| 2026-04-27 22:31 | 14.58067 | -90.38076 | 10833 ft | 275 kts | 6° |
| 2026-04-27 22:31 | 14.59982 | -90.37938 | 10484 ft | 277 kts | 6° |
| 2026-04-27 22:31 | 14.61899 | -90.37801 | 10246 ft | 275 kts | 6° |
| 2026-04-27 22:31 | 14.63781 | -90.37666 | 10131 ft | 266 kts | 6° |
| 2026-04-27 22:32 | 14.65599 | -90.37537 | 10051 ft | 258 kts | 6° |
| 2026-04-27 22:32 | 14.67358 | -90.37413 | 9970 ft | 249 kts | 5° |
| 2026-04-27 22:32 | 14.69059 | -90.37438 | 9816 ft | 243 kts | 352° |
| 2026-04-27 22:32 | 14.70633 | -90.38013 | 9748 ft | 238 kts | 333° |
| 2026-04-27 22:33 | 14.71908 | -90.39052 | 9693 ft | 229 kts | 317° |
| 2026-04-27 22:33 | 14.72841 | -90.40356 | 9518 ft | 224 kts | 302° |
| 2026-04-27 22:33 | 14.73417 | -90.41832 | 9349 ft | 216 kts | 286° |
| 2026-04-27 22:33 | 14.73624 | -90.43390 | 8730 ft | 232 kts | 272° |
| 2026-04-27 22:34 | 14.73422 | -90.45081 | 8198 ft | 237 kts | 257° |
| 2026-04-27 22:34 | 14.72877 | -90.46601 | 7947 ft | 216 kts | 243° |
| 2026-04-27 22:34 | 14.72040 | -90.47772 | 7720 ft | 194 kts | 217° |
| 2026-04-27 22:34 | 14.70968 | -90.48472 | 7466 ft | 177 kts | 204° |
| 2026-04-27 22:35 | 14.69871 | -90.48967 | 7281 ft | 167 kts | 200° |
| 2026-04-27 22:35 | 14.68775 | -90.49400 | 7053 ft | 169 kts | 198° |
| 2026-04-27 22:35 | 14.67651 | -90.49778 | 6777 ft | 169 kts | 194° |
| 2026-04-27 22:35 | 14.66544 | -90.50116 | 6616 ft | 163 kts | 194° |
| 2026-04-27 22:36 | 14.65460 | -90.50454 | 6410 ft | 163 kts | 195° |
| 2026-04-27 22:36 | 14.64370 | -90.50809 | 6113 ft | 163 kts | 196° |
| 2026-04-27 22:36 | 14.63312 | -90.51150 | 5857 ft | 156 kts | 195° |
| 2026-04-27 22:36 | 14.62283 | -90.51470 | 5670 ft | 157 kts | 196° |
| 2026-04-27 22:37 | 14.61251 | -90.51807 | 5419 ft | 154 kts | 194° |
| 2026-04-27 22:37 | 14.60252 | -90.52126 | 5209 ft | 150 kts | 195° |
| 2026-04-27 22:37 | 14.59260 | -90.52447 | 5001 ft | 152 kts | 197° |
| 2026-04-27 22:37 | 14.58334 | -90.52746 | 4933 ft | 121 kts | 197° |
| 2026-04-27 22:38 | 14.57722 | -90.52944 | 4915 ft | 61 kts | 197° |
| 2026-04-27 22:38 | 14.57482 | -90.53020 | 4908 ft | 26 kts | 197° |
| 2026-04-27 22:38 | 14.57435 | -90.53074 | 4906 ft | 6 kts | 281° |
| 2026-04-27 22:38 | 14.57458 | -90.53099 | 4907 ft | 2 kts | 351° |
| 2026-04-27 22:39 | 14.57473 | -90.53095 | 4910 ft | 2 kts | 15° |
| 2026-04-27 22:39 | 14.57503 | -90.53086 | 4908 ft | 8 kts | 15° |
| 2026-04-27 22:39 | 14.57587 | -90.53059 | 4909 ft | 16 kts | 19° |
| 2026-04-27 22:39 | 14.57690 | -90.53024 | 4911 ft | 15 kts | 18° |
| 2026-04-27 22:40 | 14.57790 | -90.52992 | 4912 ft | 15 kts | 18° |
| 2026-04-27 22:40 | 14.57885 | -90.52961 | 4918 ft | 14 kts | 18° |
| 2026-04-27 22:40 | 14.57977 | -90.52932 | 4922 ft | 13 kts | 16° |
| 2026-04-27 22:40 | 14.58064 | -90.52904 | 4927 ft | 13 kts | 18° |
| 2026-04-27 22:41 | 14.58158 | -90.52873 | 4927 ft | 16 kts | 18° |
| 2026-04-27 22:41 | 14.58260 | -90.52839 | 4930 ft | 15 kts | 17° |
| 2026-04-27 22:41 | 14.58360 | -90.52808 | 4932 ft | 15 kts | 17° |
| 2026-04-27 22:41 | 14.58456 | -90.52777 | 4934 ft | 14 kts | 17° |
| 2026-04-27 22:42 | 14.58547 | -90.52748 | 4934 ft | 13 kts | 17° |
| 2026-04-27 22:42 | 14.58623 | -90.52724 | 4933 ft | 5 kts | 17° |
| 2026-04-27 22:42 | 14.58664 | -90.52715 | 4935 ft | 3 kts | 355° |
| 2026-04-27 22:42 | 14.58690 | -90.52754 | 4936 ft | 12 kts | 292° |
| 2026-04-27 22:43 | 14.58749 | -90.52816 | 4939 ft | 13 kts | 343° |
| 2026-04-27 22:43 | 14.58833 | -90.52802 | 4941 ft | 12 kts | 17° |
| 2026-04-27 22:43 | 14.58914 | -90.52777 | 4941 ft | 12 kts | 17° |
| 2026-04-27 22:43 | 14.58993 | -90.52751 | 4941 ft | 12 kts | 17° |
| 2026-04-27 22:44 | 14.59065 | -90.52728 | 4941 ft | 8 kts | 18° |
| 2026-04-27 22:44 | 14.59094 | -90.52725 | 4939 ft | 0 kts | 336° |
| 2026-04-27 22:44 | 14.59097 | -90.52735 | 4940 ft | 5 kts | 289° |
| 2026-04-27 22:44 | 14.59113 | -90.52787 | 4939 ft | 8 kts | 288° |
| 2026-04-27 22:45 | 14.59122 | -90.52815 | 4937 ft | 0 kts | 287° |